Time;durP1;ratioP1;P1;durP2;ratioP2;P2;SDS_P1;SDS_P2;PMS_P1;PMS_P2;Temp;Humidity;BMP_temperature;BMP_pressure;BME280_temperature;BME280_humidity;BME280_pressure;Samples;Min_cycle;Max_cycle;Signal;HPM_P1;HPM_P2
2022/07/27 00:01:45;;;;;;;6.55;1.27;;;12.80;99.90;;;;;;4938338;29;20050;-74
2022/07/27 00:04:11;;;;;;;6.97;1.30;;;12.70;99.90;;;;;;4954680;29;20043;-80
2022/07/27 00:06:36;;;;;;;7.50;1.20;;;12.70;99.90;;;;;;4922892;29;20488;-75
2022/07/27 00:09:03;;;;;;;8.23;1.33;;;12.60;99.90;;;;;;4922786;29;20049;-75
2022/07/27 00:11:28;;;;;;;8.33;1.60;;;12.60;99.90;;;;;;4937879;29;20098;-75
2022/07/27 00:13:54;;;;;;;4.03;1.02;;;12.50;99.90;;;;;;4955282;29;20047;-73
2022/07/27 00:16:20;;;;;;;8.18;1.40;;;12.50;99.90;;;;;;4921943;29;20088;-74
2022/07/27 00:18:46;;;;;;;5.28;1.08;;;12.50;99.90;;;;;;4954522;29;20054;-75
2022/07/27 00:21:14;;;;;;;12.35;1.30;;;12.40;99.90;;;;;;4954278;29;20051;-75
2022/07/27 00:23:40;;;;;;;8.60;1.40;;;12.40;99.90;;;;;;4954417;29;20135;-74
2022/07/27 00:26:06;;;;;;;8.18;1.30;;;12.30;99.90;;;;;;4953842;29;20058;-73
2022/07/27 00:28:32;;;;;;;8.25;1.25;;;12.30;99.90;;;;;;4954011;29;20051;-74
2022/07/27 00:30:57;;;;;;;7.47;1.52;;;12.30;99.90;;;;;;4953596;29;20039;-75
2022/07/27 00:33:23;;;;;;;6.72;1.20;;;12.30;99.90;;;;;;4954919;29;20121;-73
2022/07/27 00:35:49;;;;;;;4.68;1.35;;;12.30;99.90;;;;;;4921962;29;20047;-75
2022/07/27 00:38:15;;;;;;;4.15;1.23;;;12.30;99.90;;;;;;4953843;29;20384;-76
2022/07/27 00:40:41;;;;;;;9.10;1.20;;;12.30;99.90;;;;;;4954807;28;20047;-76
2022/07/27 00:43:07;;;;;;;4.90;1.17;;;12.30;99.90;;;;;;4953609;29;20055;-74
2022/07/27 00:45:33;;;;;;;9.43;2.47;;;12.30;99.90;;;;;;4955925;29;20062;-75
2022/07/27 00:47:58;;;;;;;4.68;0.98;;;12.30;99.90;;;;;;4953494;29;20086;-75
2022/07/27 00:50:24;;;;;;;4.28;1.17;;;12.30;99.90;;;;;;4937368;29;20050;-74
2022/07/27 00:52:51;;;;;;;7.43;1.10;;;12.40;99.90;;;;;;4953635;29;20048;-73
2022/07/27 00:55:16;;;;;;;7.60;1.55;;;12.40;99.90;;;;;;4954536;29;20117;-75
2022/07/27 00:57:42;;;;;;;7.97;1.20;;;12.40;99.90;;;;;;4954725;28;20138;-74
2022/07/27 01:00:09;;;;;;;4.13;1.10;;;12.30;99.90;;;;;;4953299;29;20039;-74
2022/07/27 01:02:35;;;;;;;6.78;1.15;;;12.30;99.90;;;;;;4937501;29;20047;-73
2022/07/27 01:05:02;;;;;;;7.82;1.20;;;12.30;99.90;;;;;;4937272;29;20051;-73
2022/07/27 01:07:30;;;;;;;;;;;12.30;99.90;;;;;;4953807;29;20043;-74
2022/07/27 01:09:57;;;;;;;5.20;1.17;;;12.30;99.90;;;;;;4937034;29;20312;-73
2022/07/27 01:12:28;;;;;;;4.40;0.90;;;12.20;99.90;;;;;;4953536;29;20101;-74
2022/07/27 01:14:56;;;;;;;5.25;1.13;;;12.30;99.90;;;;;;4953631;29;20129;-75
2022/07/27 01:17:25;;;;;;;5.45;1.00;;;12.30;99.90;;;;;;4938075;29;20043;-74
2022/07/27 01:19:52;;;;;;;4.95;0.80;;;12.30;99.90;;;;;;4937458;29;20051;-75
2022/07/27 01:22:18;;;;;;;5.05;1.00;;;12.30;99.90;;;;;;4955157;29;20167;-75
2022/07/27 01:24:44;;;;;;;6.20;1.00;;;12.40;99.90;;;;;;4954524;28;20468;-76
2022/07/27 01:27:09;;;;;;;5.80;1.00;;;12.40;99.90;;;;;;4953442;29;20051;-75
2022/07/27 01:29:37;;;;;;;3.97;1.00;;;12.40;99.90;;;;;;4954928;29;20051;-74
2022/07/27 01:32:03;;;;;;;5.97;0.88;;;12.50;99.90;;;;;;4953355;29;20062;-74
2022/07/27 01:34:32;;;;;;;11.43;1.00;;;12.60;99.90;;;;;;4937416;29;20404;-74
2022/07/27 01:36:59;;;;;;;5.35;0.80;;;12.70;99.90;;;;;;4954758;29;20059;-75
2022/07/27 01:39:24;;;;;;;;;;;12.80;99.90;;;;;;4955274;28;20058;-76
2022/07/27 01:41:50;;;;;;;5.47;0.70;;;12.90;99.90;;;;;;4953139;29;19922;-76
2022/07/27 01:44:16;;;;;;;9.13;1.15;;;13.00;99.90;;;;;;4952974;29;20058;-73
2022/07/27 01:46:42;;;;;;;5.25;0.90;;;13.00;99.90;;;;;;4953209;29;20356;-74
2022/07/27 01:49:08;;;;;;;5.22;0.90;;;13.00;99.90;;;;;;4952856;29;20062;-74
2022/07/27 01:51:33;;;;;;;6.03;1.00;;;13.10;99.90;;;;;;4953803;28;20055;-75
2022/07/27 01:54:00;;;;;;;5.70;0.80;;;13.10;99.90;;;;;;4958020;29;20047;-74
2022/07/27 01:56:26;;;;;;;;;;;13.10;99.90;;;;;;4957102;29;20113;-74
2022/07/27 01:58:52;;;;;;;9.30;1.17;;;13.20;99.90;;;;;;4956786;29;20359;-79
2022/07/27 02:01:18;;;;;;;6.90;1.58;;;13.20;99.90;;;;;;4940249;29;20073;-74
2022/07/27 02:03:43;;;;;;;6.55;1.20;;;13.20;99.90;;;;;;4909214;29;20062;-73
2022/07/27 02:06:09;;;;;;;5.75;1.10;;;13.20;99.90;;;;;;4940280;29;20047;-74
2022/07/27 02:08:35;;;;;;;5.05;1.17;;;13.20;99.90;;;;;;4957433;28;20051;-75
2022/07/27 02:13:46;;;;;;;7.10;1.23;;;13.20;99.90;;;;;;4943327;29;20055;-75
2022/07/27 02:16:13;;;;;;;;;;;13.20;99.90;;;;;;4956817;29;20371;-76
2022/07/27 02:18:39;;;;;;;6.55;1.40;;;13.20;99.90;;;;;;4957484;29;20021;-76
2022/07/27 02:21:05;;;;;;;9.38;1.35;;;13.10;99.90;;;;;;4940144;29;20102;-79
2022/07/27 02:23:32;;;;;;;6.53;1.40;;;13.10;99.90;;;;;;4957414;29;20102;-76
2022/07/27 02:25:57;;;;;;;8.40;1.20;;;12.90;99.90;;;;;;4957458;28;20047;-76
2022/07/27 02:28:23;;;;;;;7.63;1.10;;;12.90;99.90;;;;;;4956405;29;20191;-75
2022/07/27 02:30:49;;;;;;;7.10;1.40;;;12.80;99.90;;;;;;4956565;29;20054;-75
2022/07/27 02:33:15;;;;;;;4.85;1.40;;;12.80;99.90;;;;;;4956430;29;20105;-75
2022/07/27 02:35:42;;;;;;;4.97;1.20;;;12.70;99.90;;;;;;4956573;29;20058;-75
2022/07/27 02:38:07;;;;;;;4.83;1.63;;;12.60;99.90;;;;;;4957550;29;20051;-77
2022/07/27 02:40:33;;;;;;;5.97;1.20;;;12.60;99.90;;;;;;4940611;29;20349;-74
2022/07/27 02:42:59;;;;;;;7.93;1.77;;;12.50;99.90;;;;;;4958389;29;20051;-75
2022/07/27 02:45:25;;;;;;;7.18;1.60;;;12.40;99.90;;;;;;4927620;29;20055;-73
2022/07/27 02:47:50;;;;;;;5.47;1.83;;;12.30;99.90;;;;;;4960905;28;20388;-75
2022/07/27 02:50:16;;;;;;;6.07;1.80;;;12.40;99.90;;;;;;4960728;29;20126;-75
2022/07/27 02:52:42;;;;;;;6.07;2.00;;;12.30;99.90;;;;;;4960698;29;20055;-75
2022/07/27 02:55:08;;;;;;;6.88;1.45;;;12.20;99.90;;;;;;4960552;29;20043;-77
2022/07/27 02:57:36;;;;;;;5.55;1.55;;;12.20;99.90;;;;;;4958594;29;20051;-74
2022/07/27 03:00:08;;;;;;;7.43;1.58;;;12.10;99.90;;;;;;4960468;29;20047;-74
2022/07/27 03:02:35;;;;;;;6.70;1.75;;;12.10;99.90;;;;;;4960640;28;20082;-75
2022/07/27 03:05:02;;;;;;;5.70;1.33;;;12.10;99.90;;;;;;4960714;28;20055;-75
2022/07/27 03:07:28;;;;;;;;;;;12.10;99.90;;;;;;4959898;29;20074;-74
2022/07/27 03:09:54;;;;;;;10.25;1.90;;;12.00;99.90;;;;;;4958162;28;19923;-75
2022/07/27 03:12:19;;;;;;;5.53;1.45;;;11.90;99.90;;;;;;4956405;29;20100;-75
2022/07/27 03:14:45;;;;;;;8.63;1.80;;;11.80;99.90;;;;;;4957041;29;20058;-75
2022/07/27 03:17:11;;;;;;;7.07;1.63;;;11.80;99.90;;;;;;4925646;29;20051;-79
2022/07/27 03:19:37;;;;;;;5.15;1.52;;;11.70;99.90;;;;;;4940827;29;20127;-74
2022/07/27 03:22:03;;;;;;;9.68;2.22;;;11.60;99.90;;;;;;4958149;29;20094;-73
2022/07/27 03:24:28;;;;;;;5.28;1.90;;;11.60;99.90;;;;;;4957064;29;20396;-73
2022/07/27 03:26:54;;;;;;;10.75;2.28;;;11.50;99.90;;;;;;4958994;29;20073;-73
2022/07/27 03:29:20;;;;;;;7.53;2.05;;;11.50;99.90;;;;;;4941356;29;20078;-74
2022/07/27 03:31:46;;;;;;;6.32;2.00;;;11.50;99.90;;;;;;4926494;29;20051;-76
2022/07/27 03:34:12;;;;;;;10.82;2.30;;;11.40;99.90;;;;;;4942557;29;20051;-78
2022/07/27 03:36:37;;;;;;;11.93;2.58;;;11.40;99.90;;;;;;4956750;29;20090;-74
2022/07/27 03:39:04;;;;;;;9.57;2.78;;;11.30;99.90;;;;;;4956087;29;20082;-75
2022/07/27 03:41:30;;;;;;;6.78;2.47;;;11.30;99.90;;;;;;4954942;29;20043;-74
2022/07/27 03:43:56;;;;;;;8.43;2.67;;;11.30;99.90;;;;;;4955438;29;20472;-75
2022/07/27 03:46:22;;;;;;;8.88;2.67;;;11.30;99.90;;;;;;4939250;29;20073;-77
2022/07/27 03:48:48;;;;;;;9.77;3.10;;;11.30;99.90;;;;;;4954091;29;20117;-75
2022/07/27 03:51:14;;;;;;;10.70;2.88;;;11.20;99.90;;;;;;4954655;29;20059;-79
2022/07/27 03:53:39;;;;;;;9.48;2.58;;;11.20;99.90;;;;;;4941138;29;20047;-75
2022/07/27 03:56:05;;;;;;;8.63;2.58;;;11.20;99.90;;;;;;4957334;29;20047;-74
2022/07/27 03:58:31;;;;;;;10.80;2.38;;;11.20;99.90;;;;;;4956725;29;20059;-74
2022/07/27 04:00:57;;;;;;;7.47;2.42;;;11.20;99.90;;;;;;4955290;29;20039;-74
2022/07/27 04:03:22;;;;;;;10.65;2.83;;;11.20;99.90;;;;;;4955596;29;20082;-75
2022/07/27 04:05:48;;;;;;;10.68;3.13;;;11.20;99.90;;;;;;4957364;28;20047;-74
2022/07/27 04:08:16;;;;;;;9.30;2.90;;;11.10;99.90;;;;;;4956572;29;20058;-74
2022/07/27 04:10:42;;;;;;;10.07;2.90;;;11.10;99.90;;;;;;4956409;29;20050;-75
2022/07/27 04:13:09;;;;;;;14.55;3.28;;;11.10;99.90;;;;;;4940125;29;20388;-75
2022/07/27 04:15:35;;;;;;;9.18;2.60;;;11.10;99.90;;;;;;4957093;28;20460;-76
2022/07/27 04:18:01;;;;;;;11.57;2.80;;;11.10;99.90;;;;;;4957467;29;20051;-77
2022/07/27 04:20:27;;;;;;;12.02;3.00;;;11.10;99.90;;;;;;4955270;29;20043;-75
2022/07/27 04:22:53;;;;;;;10.32;2.85;;;11.10;99.90;;;;;;4938804;29;20494;-75
2022/07/27 04:25:19;;;;;;;13.10;2.78;;;11.10;99.90;;;;;;4955860;29;20069;-75
2022/07/27 04:27:44;;;;;;;8.48;2.83;;;11.10;99.90;;;;;;4954597;29;20055;-76
2022/07/27 04:30:10;;;;;;;9.43;2.88;;;11.10;99.90;;;;;;4955430;29;20039;-75
2022/07/27 04:32:36;;;;;;;9.30;2.93;;;11.20;99.90;;;;;;4954733;29;20133;-74
2022/07/27 04:35:03;;;;;;;7.53;2.67;;;11.20;99.90;;;;;;4957189;29;20130;-79
2022/07/27 04:37:29;;;;;;;11.77;3.07;;;11.20;99.90;;;;;;4956807;29;20086;-74
2022/07/27 04:39:57;;;;;;;8.25;2.65;;;11.10;99.90;;;;;;4957771;29;20283;-73
2022/07/27 04:42:23;;;;;;;9.52;2.95;;;11.20;99.90;;;;;;4956177;29;20047;-76
2022/07/27 04:44:49;;;;;;;7.10;3.13;;;11.20;99.90;;;;;;4955612;29;20095;-73
2022/07/27 04:47:15;;;;;;;12.85;3.63;;;11.20;99.90;;;;;;4955365;29;20098;-75
2022/07/27 04:49:41;;;;;;;11.05;3.47;;;11.20;99.90;;;;;;4955477;29;20059;-74
2022/07/27 04:52:06;;;;;;;9.40;3.22;;;11.20;99.90;;;;;;4923418;29;20047;-76
2022/07/27 04:54:32;;;;;;;10.98;3.33;;;11.20;99.90;;;;;;4954516;29;20047;-75
2022/07/27 04:56:58;;;;;;;11.25;3.50;;;11.30;99.90;;;;;;4922002;29;20042;-75
2022/07/27 04:59:24;;;;;;;11.07;3.65;;;11.30;99.90;;;;;;4937634;29;20054;-74
2022/07/27 05:01:50;;;;;;;10.85;4.15;;;11.30;99.90;;;;;;4954600;29;20054;-75
2022/07/27 05:04:16;;;;;;;11.70;4.25;;;11.30;99.90;;;;;;4953739;29;20134;-77
2022/07/27 05:06:41;;;;;;;16.05;3.42;;;11.40;99.90;;;;;;4954621;28;20070;-75
2022/07/27 05:09:07;;;;;;;11.80;3.75;;;11.40;99.90;;;;;;4953361;29;20043;-76
2022/07/27 05:11:33;;;;;;;16.35;3.80;;;11.50;99.90;;;;;;4953223;29;20054;-75
2022/07/27 05:13:59;;;;;;;9.48;4.28;;;11.60;99.90;;;;;;4953719;29;20047;-75
2022/07/27 05:16:25;;;;;;;9.80;4.03;;;11.70;99.90;;;;;;4954075;29;20504;-75
2022/07/27 05:18:50;;;;;;;16.13;4.25;;;11.80;99.90;;;;;;4953269;29;20363;-74
2022/07/27 05:21:16;;;;;;;11.35;4.13;;;11.90;99.90;;;;;;4921135;29;20059;-76
2022/07/27 05:23:42;;;;;;;11.40;3.65;;;12.00;99.90;;;;;;4953378;29;20047;-76
2022/07/27 05:26:07;;;;;;;10.20;3.17;;;12.10;99.90;;;;;;4953028;28;20126;-75
2022/07/27 05:28:33;;;;;;;14.52;3.83;;;12.30;99.90;;;;;;4957742;29;20054;-75
2022/07/27 05:30:59;;;;;;;10.85;3.63;;;12.40;99.90;;;;;;4957418;29;20054;-75
2022/07/27 05:33:25;;;;;;;9.98;3.60;;;12.40;99.90;;;;;;4940974;29;20083;-82
2022/07/27 05:35:50;;;;;;;9.95;3.58;;;12.60;99.90;;;;;;4941056;29;20460;-76
2022/07/27 05:38:16;;;;;;;10.18;2.95;;;12.70;99.90;;;;;;4957616;29;20055;-75
2022/07/27 05:40:45;;;;;;;8.10;2.80;;;12.80;99.90;;;;;;4957635;29;20527;-75
2022/07/27 05:43:11;;;;;;;10.55;3.28;;;12.90;99.90;;;;;;4956932;29;20046;-74
2022/07/27 05:45:37;;;;;;;10.68;3.60;;;13.00;99.90;;;;;;4957404;29;20049;-74
2022/07/27 05:48:03;;;;;;;12.95;3.33;;;13.00;99.90;;;;;;4956495;29;20059;-74
2022/07/27 05:50:29;;;;;;;12.13;3.05;;;13.10;99.90;;;;;;4958122;28;20498;-74
2022/07/27 05:52:57;;;;;;;10.20;2.70;;;13.20;99.90;;;;;;4941068;29;20225;-76
2022/07/27 05:55:23;;;;;;;11.90;2.80;;;13.30;99.90;;;;;;4958475;28;20055;-75
2022/07/27 05:57:49;;;;;;;10.77;2.73;;;13.40;99.90;;;;;;4940581;29;20090;-76
2022/07/27 06:00:15;;;;;;;14.77;3.33;;;13.50;99.90;;;;;;4957815;29;20086;-77
2022/07/27 06:02:41;;;;;;;14.50;3.70;;;13.70;99.90;;;;;;4958373;28;20048;-76
2022/07/27 06:05:07;;;;;;;12.00;3.22;;;13.80;99.90;;;;;;4956532;29;20409;-77
2022/07/27 06:10:18;;;;;;;6.80;2.50;;;13.80;99.90;;;;;;4957658;29;20062;-76
2022/07/27 06:12:45;;;;;;;14.43;2.80;;;14.00;99.90;;;;;;4956581;29;20411;-76
2022/07/27 06:15:12;;;;;;;8.38;2.60;;;14.20;99.90;;;;;;4957762;29;20047;-76
2022/07/27 06:17:38;;;;;;;;;;;14.20;99.90;;;;;;4956821;29;20126;-76
2022/07/27 06:20:05;;;;;;;7.97;2.20;;;14.30;99.90;;;;;;4956455;29;19923;-76
2022/07/27 06:22:31;;;;;;;10.60;2.47;;;14.50;99.90;;;;;;4924731;29;20059;-81
2022/07/27 06:24:58;;;;;;;13.18;2.50;;;14.60;99.90;;;;;;4956627;29;20047;-77
2022/07/27 06:27:23;;;;;;;5.63;1.80;;;14.70;99.90;;;;;;4957993;29;20043;-74
2022/07/27 06:29:49;;;;;;;10.70;1.88;;;14.80;99.90;;;;;;4957261;28;20047;-77
2022/07/27 06:32:15;;;;;;;9.80;1.88;;;15.00;99.90;;;;;;4940284;29;20490;-76
2022/07/27 06:34:41;;;;;;;7.80;1.42;;;15.20;99.90;;;;;;4955546;29;20511;-74
2022/07/27 06:37:07;;;;;;;5.45;1.20;;;15.30;99.90;;;;;;4939809;29;20058;-76
2022/07/27 06:39:32;;;;;;;6.70;1.25;;;15.40;99.90;;;;;;4956213;28;20051;-76
2022/07/27 06:41:58;;;;;;;8.38;1.00;;;15.20;99.90;;;;;;4957046;28;20427;-76
2022/07/27 06:44:24;;;;;;;5.43;1.40;;;15.40;99.90;;;;;;4940714;29;20155;-77
2022/07/27 06:46:50;;;;;;;7.65;1.38;;;15.50;99.90;;;;;;4955849;29;20118;-78
2022/07/27 06:49:15;;;;;;;10.45;1.73;;;15.60;99.90;;;;;;4956662;29;20114;-76
2022/07/27 06:51:41;;;;;;;13.55;1.63;;;15.50;99.90;;;;;;4955452;29;20048;-77
2022/07/27 06:54:07;;;;;;;5.45;1.27;;;15.80;99.90;;;;;;4955625;29;20051;-74
2022/07/27 06:56:32;;;;;;;12.70;1.60;;;15.80;99.90;;;;;;4956016;29;20145;-77
2022/07/27 06:58:58;;;;;;;9.23;1.30;;;15.80;99.90;;;;;;4956956;29;20573;-76
2022/07/27 07:01:24;;;;;;;6.70;1.23;;;15.90;99.90;;;;;;4956527;28;20047;-77
2022/07/27 07:03:50;;;;;;;9.20;1.30;;;15.80;99.90;;;;;;4955067;29;20047;-75
2022/07/27 07:06:16;;;;;;;5.97;1.35;;;15.50;99.90;;;;;;4955196;29;20153;-75
2022/07/27 07:08:41;;;;;;;10.40;1.67;;;15.80;99.90;;;;;;4955732;29;20057;-78
2022/07/27 07:11:10;;;;;;;11.15;1.77;;;15.90;99.90;;;;;;4939267;29;20047;-77
2022/07/27 07:13:36;;;;;;;9.20;1.55;;;16.00;99.90;;;;;;4955346;29;20046;-77
2022/07/27 07:16:03;;;;;;;9.98;1.65;;;16.20;99.90;;;;;;4955092;29;20082;-78
2022/07/27 07:18:28;;;;;;;9.95;1.58;;;16.20;99.90;;;;;;4954999;29;20066;-76
2022/07/27 07:20:54;;;;;;;8.13;1.30;;;16.10;99.90;;;;;;4954934;29;20082;-76
2022/07/27 07:23:20;;;;;;;10.93;1.25;;;16.20;99.90;;;;;;4939717;29;20094;-77
2022/07/27 07:25:46;;;;;;;7.30;1.17;;;16.10;99.90;;;;;;4956007;29;20043;-76
2022/07/27 07:28:12;;;;;;;4.93;1.00;;;16.10;99.90;;;;;;4954967;29;20043;-76
2022/07/27 07:30:37;;;;;;;7.10;1.23;;;16.40;99.90;;;;;;4954773;29;20051;-75
2022/07/27 07:33:03;;;;;;;8.02;1.20;;;16.30;99.90;;;;;;4938696;29;20047;-78
2022/07/27 07:35:29;;;;;;;6.10;0.93;;;16.40;99.90;;;;;;4939102;29;20051;-77
2022/07/27 07:37:55;;;;;;;8.27;1.30;;;16.40;99.90;;;;;;4956156;29;20055;-77
2022/07/27 07:40:21;;;;;;;9.60;1.10;;;16.40;99.90;;;;;;4955624;29;20051;-75
2022/07/27 07:43:01;;;;;;;6.83;1.10;;;16.50;99.90;;;;;;4956003;29;20348;-76
2022/07/27 07:45:28;;;;;;;6.85;0.90;;;16.70;99.90;;;;;;4955530;29;20059;-76
2022/07/27 07:47:56;;;;;;;7.40;0.88;;;16.90;99.90;;;;;;4954500;29;20111;-75
2022/07/27 07:50:24;;;;;;;3.58;0.40;;;16.80;99.90;;;;;;4955347;28;20146;-75
2022/07/27 07:52:53;;;;;;;7.05;0.95;;;16.80;99.90;;;;;;4956262;28;20051;-76
2022/07/27 07:55:21;;;;;;;8.65;1.17;;;16.70;99.90;;;;;;4955918;28;20051;-76
2022/07/27 07:57:47;;;;;;;4.65;0.70;;;16.80;99.90;;;;;;4955217;28;20506;-78
2022/07/27 08:00:13;;;;;;;8.02;0.75;;;17.00;99.90;;;;;;4954420;29;20047;-76
2022/07/27 08:02:54;;;;;;;3.03;0.55;;;17.10;99.90;;;;;;4938512;29;20059;-75
2022/07/27 08:05:21;;;;;;;4.85;0.60;;;17.20;99.90;;;;;;4954007;29;20154;-75
2022/07/27 08:07:48;;;;;;;7.15;0.73;;;17.00;99.90;;;;;;4954705;29;20051;-76
2022/07/27 08:10:15;;;;;;;5.65;0.75;;;17.20;99.90;;;;;;4954927;28;20235;-77
2022/07/27 08:12:43;;;;;;;7.88;0.60;;;16.90;99.90;;;;;;4938239;29;20055;-77
2022/07/27 08:15:10;;;;;;;7.85;0.63;;;17.00;99.90;;;;;;4955664;29;20055;-77
2022/07/27 08:17:36;;;;;;;5.32;0.68;;;17.20;99.90;;;;;;4955448;28;20051;-76
2022/07/27 08:20:03;;;;;;;5.05;0.60;;;17.20;99.90;;;;;;4953945;29;20046;-76
2022/07/27 08:22:29;;;;;;;8.32;0.65;;;17.50;99.90;;;;;;4955808;28;20103;-77
2022/07/27 08:24:55;;;;;;;5.87;0.53;;;17.20;99.90;;;;;;4938096;29;20051;-76
2022/07/27 08:27:21;;;;;;;4.13;0.60;;;17.20;99.90;;;;;;4955458;29;20039;-76
2022/07/27 08:29:47;;;;;;;7.37;0.63;;;17.20;99.90;;;;;;4938533;29;20093;-78
2022/07/27 08:32:12;;;;;;;7.27;0.60;;;17.10;99.90;;;;;;4955229;29;20083;-74
2022/07/27 08:34:38;;;;;;;11.50;0.80;;;17.00;99.90;;;;;;4938261;29;20048;-74
2022/07/27 08:37:04;;;;;;;5.90;0.77;;;17.00;99.90;;;;;;4955588;29;20086;-76
2022/07/27 08:39:30;;;;;;;9.63;0.70;;;16.90;99.90;;;;;;4955946;28;20058;-74
2022/07/27 08:41:59;;;;;;;6.00;0.70;;;17.00;99.90;;;;;;4940359;29;20043;-76
2022/07/27 08:44:28;;;;;;;7.95;0.73;;;17.10;99.90;;;;;;4955213;29;20043;-75
2022/07/27 08:46:56;;;;;;;8.13;0.73;;;17.20;99.90;;;;;;4922305;29;20057;-76
2022/07/27 08:49:22;;;;;;;5.13;0.95;;;17.30;99.90;;;;;;4953563;28;20448;-76
2022/07/27 08:51:49;;;;;;;7.10;0.95;;;17.30;99.90;;;;;;4953817;29;20047;-76
2022/07/27 08:54:15;;;;;;;12.75;1.10;;;17.10;99.90;;;;;;4953751;29;20083;-77
2022/07/27 08:56:42;;;;;;;4.03;0.50;;;17.40;99.90;;;;;;4954022;29;20059;-76
2022/07/27 08:59:08;;;;;;;7.72;0.70;;;17.50;99.90;;;;;;4954084;29;20051;-77
2022/07/27 09:01:37;;;;;;;6.47;0.57;;;17.70;99.90;;;;;;4954448;29;20039;-78
2022/07/27 09:04:03;;;;;;;5.95;0.80;;;18.00;99.90;;;;;;4954689;28;20050;-77
2022/07/27 09:06:50;;;;;;;4.77;0.57;;;18.10;99.90;;;;;;4953541;28;20126;-75
2022/07/27 09:09:19;;;;;;;3.60;0.60;;;18.30;99.90;;;;;;4954530;29;20075;-77
2022/07/27 09:12:06;;;;;;;4.72;0.50;;;18.40;99.90;;;;;;4954112;29;20079;-77
2022/07/27 09:14:34;;;;;;;7.38;0.70;;;18.40;99.90;;;;;;4954193;29;20069;-76
2022/07/27 09:17:26;;;;;;;3.97;0.43;;;18.70;99.90;;;;;;4953732;29;20444;-75
2022/07/27 09:19:53;;;;;;;4.75;0.50;;;18.90;99.90;;;;;;4955629;29;20059;-77
2022/07/27 09:22:42;;;;;;;4.80;0.40;;;18.70;99.90;;;;;;4954187;29;20084;-76
2022/07/27 09:25:10;;;;;;;5.88;0.60;;;18.80;99.90;;;;;;4955652;29;20085;-78
2022/07/27 09:27:37;;;;;;;2.40;0.40;;;18.70;99.20;;;;;;4939146;29;20086;-77
2022/07/27 09:30:07;;;;;;;;;;;18.90;99.90;;;;;;4955098;29;20047;-76
2022/07/27 09:32:34;;;;;;;4.40;0.45;;;19.30;99.90;;;;;;4955734;29;20370;-78
2022/07/27 09:35:18;;;;;;;2.03;0.40;;;19.50;99.90;;;;;;4956391;29;20089;-77
2022/07/27 09:37:44;;;;;;;2.25;0.40;;;20.00;99.90;;;;;;4956271;29;20087;-78
2022/07/27 09:40:11;;;;;;;4.40;0.40;;;20.20;99.90;;;;;;4956199;29;20043;-76
2022/07/27 09:42:37;;;;;;;3.95;0.60;;;20.30;99.90;;;;;;4938027;29;20051;-78
2022/07/27 09:45:03;;;;;;;6.22;0.70;;;20.10;99.90;;;;;;4953771;29;20055;-79
2022/07/27 09:47:29;;;;;;;6.07;0.50;;;19.80;99.90;;;;;;4937953;29;20062;-77
2022/07/27 09:50:16;;;;;;;4.00;0.50;;;20.00;99.90;;;;;;4955809;29;20067;-78
2022/07/27 09:52:43;;;;;;;9.07;0.60;;;19.60;99.90;;;;;;4955186;29;20047;-77
2022/07/27 09:55:09;;;;;;;3.97;0.73;;;20.10;99.90;;;;;;4953746;29;20120;-78
2022/07/27 09:57:55;;;;;;;4.90;0.60;;;19.70;99.90;;;;;;4954147;29;20051;-78
2022/07/27 10:00:21;;;;;;;6.40;0.60;;;20.00;99.90;;;;;;4939556;29;20047;-81
2022/07/27 10:02:49;;;;;;;5.68;1.05;;;19.60;99.90;;;;;;4955419;29;20149;-77
2022/07/27 10:05:18;;;;;;;7.57;0.70;;;19.10;99.90;;;;;;4953200;29;20051;-76
2022/07/27 10:07:44;;;;;;;7.97;1.00;;;18.70;99.90;;;;;;4956000;28;20364;-79
2022/07/27 10:10:13;;;;;;;6.70;0.90;;;18.60;99.90;;;;;;4956380;28;20043;-81
2022/07/27 10:12:41;;;;;;;6.70;0.70;;;18.50;99.90;;;;;;4957780;28;20051;-84
2022/07/27 10:15:08;;;;;;;4.20;0.80;;;18.70;99.90;;;;;;4960547;29;20051;-81
2022/07/27 10:17:36;;;;;;;7.05;0.93;;;18.60;99.90;;;;;;4942779;29;20043;-77
2022/07/27 10:20:07;;;;;;;4.13;0.60;;;18.80;99.90;;;;;;4942738;29;20086;-78
2022/07/27 10:22:54;;;;;;;6.53;1.08;;;18.60;99.90;;;;;;4958237;28;20051;-79
2022/07/27 10:25:22;;;;;;;6.75;0.65;;;18.70;99.90;;;;;;4959076;29;20156;-79
2022/07/27 10:28:08;;;;;;;7.82;0.80;;;18.50;99.90;;;;;;4958524;28;20051;-75
2022/07/27 10:30:35;;;;;;;6.22;0.80;;;18.90;99.90;;;;;;4940724;29;20048;-76
2022/07/27 10:33:15;;;;;;;5.72;0.95;;;19.10;99.90;;;;;;4956811;29;20134;-77
2022/07/27 10:35:41;;;;;;;8.13;0.93;;;19.00;99.90;;;;;;4955824;29;20058;-76
2022/07/27 10:38:11;;;;;;;6.47;0.70;;;18.90;99.90;;;;;;4940411;29;20047;-77
2022/07/27 10:40:38;;;;;;;5.05;0.55;;;19.20;99.90;;;;;;4957110;29;20047;-77
2022/07/27 10:43:21;;;;;;;5.82;0.75;;;19.40;99.90;;;;;;4956360;29;20059;-76
2022/07/27 10:45:50;;;;;;;5.60;0.85;;;19.80;99.90;;;;;;4956610;29;20106;-76
2022/07/27 10:48:39;;;;;;;5.57;0.73;;;19.30;99.90;;;;;;4940048;29;20110;-79
2022/07/27 10:51:07;;;;;;;4.38;0.70;;;19.60;99.90;;;;;;4956854;28;20047;-80
2022/07/27 10:53:40;;;;;;;4.90;0.68;;;19.90;99.90;;;;;;4940193;29;20063;-77
2022/07/27 10:56:08;;;;;;;6.00;0.60;;;19.90;99.60;;;;;;4956147;29;20047;-76
2022/07/27 10:58:33;;;;;;;6.05;0.60;;;19.90;99.90;;;;;;4956000;29;20512;-77
2022/07/27 11:01:01;;;;;;;5.60;0.77;;;20.10;99.70;;;;;;4956434;29;20074;-79
2022/07/27 11:03:35;;;;;;;4.07;0.60;;;20.20;99.40;;;;;;4956389;29;20368;-75
2022/07/27 11:06:12;;;;;;;4.35;0.52;;;20.50;98.80;;;;;;4940965;29;20051;-79
2022/07/27 11:08:43;;;;;;;3.67;0.50;;;20.40;97.90;;;;;;4939951;29;20066;-77
2022/07/27 11:11:13;;;;;;;6.03;0.50;;;20.60;98.20;;;;;;4955712;29;20043;-76
2022/07/27 11:13:40;;;;;;;3.63;0.80;;;20.60;98.10;;;;;;4940560;29;20094;-76
2022/07/27 11:16:12;;;;;;;3.40;0.40;;;20.80;98.60;;;;;;4924332;29;20043;-81
2022/07/27 11:18:40;;;;;;;6.85;0.52;;;21.10;96.90;;;;;;4940080;29;20067;-77
2022/07/27 11:21:21;;;;;;;3.22;0.30;;;21.10;97.40;;;;;;4956312;29;20488;-77
2022/07/27 11:23:52;;;;;;;5.57;0.60;;;21.10;97.30;;;;;;4939462;28;20043;-77
2022/07/27 11:26:19;;;;;;;4.57;0.80;;;20.90;95.90;;;;;;4955515;29;20087;-77
2022/07/27 11:28:45;;;;;;;7.57;0.70;;;20.60;97.20;;;;;;4956827;29;20058;-76
2022/07/27 11:31:12;;;;;;;4.57;0.50;;;21.00;97.90;;;;;;4938855;29;20455;-77
2022/07/27 11:33:57;;;;;;;9.50;0.90;;;21.00;99.80;;;;;;4955632;29;20052;-76
2022/07/27 11:36:41;;;;;;;5.57;0.63;;;20.80;99.40;;;;;;4939510;29;20591;-75
2022/07/27 11:39:09;;;;;;;12.10;1.70;;;20.70;99.50;;;;;;4956343;29;20082;-75
2022/07/27 11:41:36;;;;;;;4.07;0.40;;;20.20;99.50;;;;;;4956074;28;20047;-76
2022/07/27 11:44:10;;;;;;;4.45;0.50;;;20.20;98.50;;;;;;4923180;29;20055;-75
2022/07/27 11:46:41;;;;;;;4.90;0.50;;;20.50;99.10;;;;;;4939185;29;20384;-76
2022/07/27 11:49:10;;;;;;;3.58;0.60;;;20.50;97.60;;;;;;4922965;29;20122;-76
2022/07/27 11:51:44;;;;;;;6.13;0.52;;;20.70;97.80;;;;;;4955832;29;20142;-77
2022/07/27 11:54:37;;;;;;;6.30;0.60;;;20.30;97.00;;;;;;4954685;29;20054;-74
2022/07/27 11:57:09;;;;;;;6.93;0.63;;;20.70;95.70;;;;;;4956067;28;20407;-77
2022/07/27 11:59:40;;;;;;;4.28;0.57;;;20.70;96.30;;;;;;4954419;28;20094;-77
2022/07/27 12:02:16;;;;;;;5.10;0.60;;;21.10;95.30;;;;;;4954909;29;20054;-76
2022/07/27 12:04:47;;;;;;;4.32;0.40;;;21.10;94.80;;;;;;4955523;29;20066;-76
2022/07/27 12:07:15;;;;;;;4.57;0.50;;;21.10;95.70;;;;;;4938660;29;20063;-74
2022/07/27 12:09:53;;;;;;;4.60;0.52;;;21.20;95.20;;;;;;4955490;29;20055;-75
2022/07/27 12:12:20;;;;;;;4.32;0.47;;;21.20;94.20;;;;;;4938429;29;20111;-76
2022/07/27 12:14:55;;;;;;;5.22;0.52;;;21.30;95.20;;;;;;4955809;29;20494;-75
2022/07/27 12:17:31;;;;;;;5.23;0.50;;;21.00;95.00;;;;;;4938307;29;20078;-77
2022/07/27 12:20:11;;;;;;;2.47;0.50;;;20.90;94.90;;;;;;4955153;29;20108;-76
2022/07/27 12:22:43;;;;;;;5.65;0.50;;;20.80;94.20;;;;;;4955998;28;20466;-75
2022/07/27 12:25:29;;;;;;;3.20;0.52;;;20.90;94.60;;;;;;4954094;29;20089;-75
2022/07/27 12:28:03;;;;;;;7.47;0.60;;;21.30;94.40;;;;;;4954925;29;20055;-76
2022/07/27 12:30:45;;;;;;;3.88;0.50;;;21.10;95.20;;;;;;4938831;29;20051;-74
2022/07/27 12:33:30;;;;;;;4.90;0.52;;;21.20;93.50;;;;;;4953764;29;20058;-75
2022/07/27 12:35:58;;;;;;;6.40;0.63;;;21.40;93.20;;;;;;4953885;28;20380;-76
2022/07/27 12:38:35;;;;;;;3.15;0.50;;;21.60;93.00;;;;;;4953405;29;20047;-78
2022/07/27 12:41:00;;;;;;;4.43;0.63;;;21.40;94.70;;;;;;4954360;29;20503;-76
2022/07/27 12:43:26;;;;;;;7.27;0.70;;;21.50;95.50;;;;;;4955223;28;20063;-76
2022/07/27 12:45:53;;;;;;;4.43;0.60;;;21.40;95.10;;;;;;4953829;29;20452;-78
2022/07/27 12:48:21;;;;;;;5.38;0.52;;;21.10;96.00;;;;;;4954400;28;20174;-76
2022/07/27 12:51:00;;;;;;;5.60;0.40;;;21.00;95.70;;;;;;4922442;29;20423;-74
2022/07/27 12:53:26;;;;;;;6.10;0.60;;;20.70;95.50;;;;;;4953822;29;20047;-76
2022/07/27 12:55:55;;;;;;;4.80;0.57;;;20.90;95.20;;;;;;4937923;29;20113;-75
2022/07/27 12:58:20;;;;;;;4.60;0.50;;;20.90;94.60;;;;;;4953394;29;20121;-77